createdAt,value
2022-11-29T00:01:26.096Z,77.46
2022-11-29T00:06:26.795Z,77.59
2022-11-29T00:11:41.478Z,77.89
2022-11-29T00:16:42.874Z,78.50
2022-11-29T00:21:40.140Z,79.21
2022-11-29T00:26:37.340Z,79.27
2022-11-29T00:31:35.331Z,78.57
2022-11-29T00:36:38.576Z,78.23
2022-11-29T00:41:36.687Z,78.38
2022-11-29T00:46:33.747Z,78.22
2022-11-29T00:51:30.779Z,78.57
2022-11-29T00:56:29.490Z,78.30
2022-11-29T01:01:26.872Z,77.74
2022-11-29T01:06:23.941Z,76.85
2022-11-29T01:11:23.233Z,77.30
2022-11-29T01:16:21.740Z,76.45
2022-11-29T01:21:21.643Z,76.62
2022-11-29T01:26:21.630Z,77.76
2022-11-29T01:31:21.136Z,77.86
2022-11-29T01:36:19.224Z,77.43
2022-11-29T01:41:20.791Z,78.00
2022-11-29T01:46:17.883Z,78.01
2022-11-29T01:51:15.901Z,77.59
2022-11-29T01:56:15.711Z,78.21
2022-11-29T02:01:14.100Z,78.26
2022-11-29T02:06:11.249Z,78.62
2022-11-29T02:11:44.504Z,78.36
2022-11-29T02:16:56.542Z,78.94
2022-11-29T02:21:58.122Z,78.14
2022-11-29T02:27:18.287Z,78.70
2022-11-29T02:32:44.260Z,79.01
2022-11-29T02:37:58.563Z,79.86
2022-11-29T02:43:14.812Z,79.68
2022-11-29T02:48:33.120Z,79.93
2022-11-29T02:53:38.285Z,80.33
2022-11-29T02:58:43.926Z,80.51
2022-11-29T03:03:46.948Z,80.93
2022-11-29T03:08:52.276Z,80.05
2022-11-29T03:13:56.105Z,80.02
2022-11-29T03:19:05.366Z,79.94
2022-11-29T03:24:08.206Z,80.98
2022-11-29T03:29:20.299Z,81.63
2022-11-29T03:34:25.424Z,81.42
2022-11-29T03:39:33.186Z,81.28
2022-11-29T03:44:35.784Z,81.39
2022-11-29T03:49:41.353Z,81.46
2022-11-29T03:54:50.961Z,82.11
2022-11-29T04:00:02.041Z,81.19
2022-11-29T04:05:47.776Z,80.63
2022-11-29T04:11:05.971Z,81.45
2022-11-29T04:16:31.880Z,82.01
2022-11-29T04:21:56.060Z,82.69
2022-11-29T04:27:19.464Z,82.77
2022-11-29T04:32:39.837Z,82.96
2022-11-29T04:38:25.947Z,82.90
2022-11-29T04:43:47.383Z,82.41
2022-11-29T04:49:02.083Z,82.99
2022-11-29T04:54:13.353Z,82.65
2022-11-29T04:59:18.742Z,82.87
2022-11-29T05:04:21.782Z,82.75
2022-11-29T05:09:28.947Z,83.09
2022-11-29T05:14:40.723Z,82.88
2022-11-29T05:19:52.507Z,82.48
2022-11-29T05:25:00.978Z,82.59
2022-11-29T05:30:03.387Z,83.30
2022-11-29T05:35:16.834Z,81.06
2022-11-29T05:40:44.731Z,80.81
2022-11-29T05:45:49.350Z,80.14
2022-11-29T05:50:54.663Z,80.41
2022-11-29T05:56:04.876Z,80.23
2022-11-29T06:01:29.106Z,79.17
2022-11-29T06:06:46.013Z,79.41
2022-11-29T06:11:47.601Z,80.48
2022-11-29T06:17:19.745Z,80.08
2022-11-29T06:22:43.042Z,79.75
2022-11-29T06:28:01.838Z,79.55
2022-11-29T06:33:05.838Z,79.31
2022-11-29T06:38:12.452Z,79.28
2022-11-29T06:43:14.296Z,79.83
2022-11-29T06:48:16.083Z,80.14
2022-11-29T06:53:22.676Z,79.79
2022-11-29T06:58:43.787Z,79.80
2022-11-29T07:04:05.039Z,80.57
2022-11-29T07:09:13.951Z,81.57
2022-11-29T07:14:22.405Z,81.38
2022-11-29T07:19:28.814Z,81.46
2022-11-29T07:24:41.853Z,81.89
2022-11-29T07:29:48.906Z,81.67
2022-11-29T07:34:58.574Z,81.44
2022-11-29T07:40:03.522Z,81.60
2022-11-29T07:45:13.120Z,81.19
2022-11-29T07:50:12.569Z,82.16
2022-11-29T07:55:18.497Z,82.54
2022-11-29T08:00:18.710Z,82.38
2022-11-29T08:05:21.805Z,80.83
2022-11-29T08:10:20.664Z,81.00
2022-11-29T08:15:25.148Z,81.81
2022-11-29T08:20:29.607Z,80.71
2022-11-29T08:25:30.495Z,81.72
2022-11-29T08:30:33.340Z,82.07
2022-11-29T08:35:31.816Z,80.04
2022-11-29T08:40:29.359Z,80.05
2022-11-29T08:45:28.087Z,80.26
2022-11-29T08:50:28.545Z,80.17
2022-11-29T08:55:32.094Z,80.01
2022-11-29T09:00:30.452Z,80.60
2022-11-29T09:05:30.003Z,80.89
2022-11-29T09:10:49.082Z,81.81
2022-11-29T09:15:47.168Z,80.32
2022-11-29T09:20:58.888Z,79.80
2022-11-29T09:26:02.141Z,79.98
2022-11-29T09:31:05.586Z,80.07
2022-11-29T09:36:08.833Z,80.80
2022-11-29T09:41:58.936Z,80.26
2022-11-29T09:47:17.711Z,78.38
2022-11-29T09:52:28.997Z,79.09
2022-11-29T09:57:30.073Z,79.96
2022-11-29T10:02:37.442Z,80.72
2022-11-29T10:07:44.912Z,81.17
2022-11-29T10:12:48.978Z,81.12
2022-11-29T10:17:54.087Z,81.34
2022-11-29T10:22:56.919Z,81.58
2022-11-29T10:27:55.846Z,81.71
2022-11-29T10:32:58.164Z,82.48
2022-11-29T10:38:29.852Z,81.84
2022-11-29T10:43:26.331Z,81.14
2022-11-29T10:48:33.508Z,81.61
2022-11-29T10:53:40.012Z,81.64
2022-11-29T10:58:55.732Z,81.32
2022-11-29T11:04:14.711Z,81.88
2022-11-29T11:09:54.413Z,83.14
2022-11-29T11:14:53.995Z,84.10
2022-11-29T11:20:02.843Z,83.63
2022-11-29T11:25:25.331Z,83.42
2022-11-29T11:30:38.850Z,84.31
2022-11-29T11:35:45.560Z,84.94
2022-11-29T11:41:11.424Z,84.89
2022-11-29T11:46:17.683Z,84.72
2022-11-29T11:51:58.009Z,84.74
2022-11-29T11:57:09.671Z,85.20
2022-11-29T12:02:25.979Z,85.76
2022-11-29T12:07:59.780Z,85.89
2022-11-29T12:12:57.366Z,85.79
2022-11-29T12:18:09.094Z,85.84
2022-11-29T12:23:24.694Z,86.89
2022-11-29T12:28:28.647Z,87.17
2022-11-29T12:33:38.409Z,86.45
2022-11-29T12:44:18.533Z,86.21
2022-11-29T12:49:29.753Z,86.56
2022-11-29T12:54:40.492Z,86.41
2022-11-29T13:00:11.539Z,86.98
2022-11-29T13:05:19.364Z,87.57
2022-11-29T13:10:33.066Z,88.10
2022-11-29T13:15:39.845Z,87.70
2022-11-29T13:20:44.992Z,88.31
2022-11-29T13:25:48.433Z,87.95
2022-11-29T13:30:47.355Z,88.03
2022-11-29T13:35:52.944Z,88.17
2022-11-29T13:40:59.375Z,88.54
2022-11-29T13:46:06.115Z,89.31
2022-11-29T13:51:26.926Z,89.33
2022-11-29T13:56:32.245Z,88.80
2022-11-29T14:01:55.978Z,88.34
2022-11-29T14:07:12.313Z,88.55
2022-11-29T14:12:37.927Z,88.49
2022-11-29T14:17:48.615Z,88.33
2022-11-29T14:23:13.769Z,88.96
2022-11-29T14:28:39.955Z,88.88
2022-11-29T14:34:06.816Z,89.31
2022-11-29T14:39:30.976Z,89.85
2022-11-29T14:44:33.906Z,90.18
2022-11-29T14:49:40.570Z,90.57
2022-11-29T14:55:03.418Z,89.98
2022-11-29T15:00:07.282Z,89.93
2022-11-29T15:05:17.985Z,90.68
2022-11-29T15:10:21.376Z,90.94
2022-11-29T15:16:09.345Z,89.99
2022-11-29T15:21:40.862Z,90.25
2022-11-29T15:26:44.408Z,89.90
2022-11-29T15:31:47.124Z,89.71
2022-11-29T15:36:49.995Z,90.05
2022-11-29T15:42:02.078Z,90.09
2022-11-29T15:47:14.568Z,90.48
2022-11-29T15:52:20.751Z,90.55
2022-11-29T15:57:26.144Z,90.92
2022-11-29T16:02:27.261Z,90.33
2022-11-29T16:07:26.944Z,90.62
2022-11-29T16:12:24.597Z,91.06
2022-11-29T16:17:25.036Z,90.86
2022-11-29T16:22:23.710Z,90.09
2022-11-29T16:27:25.077Z,90.96
2022-11-29T16:32:29.381Z,91.44
2022-11-29T16:37:32.588Z,92.15
2022-11-29T16:42:31.908Z,91.94
2022-11-29T16:47:38.869Z,91.31
2022-11-29T16:52:47.539Z,90.67
2022-11-29T16:57:52.353Z,91.25
2022-11-29T17:02:52.703Z,90.97
2022-11-29T17:07:51.700Z,91.98
2022-11-29T17:13:05.257Z,91.50
2022-11-29T17:18:10.542Z,91.26
2022-11-29T17:23:08.937Z,90.51
2022-11-29T17:28:10.159Z,91.19
2022-11-29T17:33:07.247Z,92.00
2022-11-29T17:38:18.143Z,92.07
2022-11-29T17:44:00.133Z,92.12
2022-11-29T17:49:10.023Z,91.39
2022-11-29T17:54:12.953Z,91.58
2022-11-29T17:59:13.559Z,90.99
2022-11-29T18:04:15.612Z,91.60
2022-11-29T18:09:17.063Z,91.41
2022-11-29T18:14:16.621Z,92.03
2022-11-29T18:19:15.646Z,91.33
2022-11-29T18:24:13.235Z,91.91
2022-11-29T18:29:10.448Z,92.27
2022-11-29T18:34:12.670Z,91.87
2022-11-29T18:39:14.070Z,91.89
2022-11-29T18:44:13.310Z,92.17
2022-11-29T18:49:13.472Z,92.08
2022-11-29T18:54:24.592Z,92.06
2022-11-29T18:59:29.761Z,91.93
2022-11-29T19:04:27.805Z,92.43
2022-11-29T19:09:25.461Z,92.25
2022-11-29T19:15:13.231Z,93.17
2022-11-29T19:20:52.616Z,92.82
2022-11-29T19:26:11.388Z,91.83
2022-11-29T19:31:13.072Z,92.28
2022-11-29T19:36:13.676Z,92.48
2022-11-29T19:41:16.795Z,92.11
2022-11-29T19:46:22.212Z,91.75
2022-11-29T19:51:25.192Z,91.62
2022-11-29T19:56:23.517Z,92.30
2022-11-29T20:01:22.508Z,92.53
2022-11-29T20:06:24.265Z,93.77
2022-11-29T20:11:23.363Z,93.23
2022-11-29T20:16:24.794Z,93.48
2022-11-29T20:21:26.532Z,92.03
2022-11-29T20:26:32.776Z,92.64
2022-11-29T20:31:36.737Z,91.63
2022-11-29T20:36:46.474Z,91.72
2022-11-29T20:42:12.897Z,92.33
2022-11-29T20:47:29.560Z,91.91
2022-11-29T20:52:38.603Z,92.09
2022-11-29T20:57:42.087Z,92.45
2022-11-29T21:02:43.156Z,93.54
2022-11-29T21:07:41.240Z,92.87
2022-11-29T21:12:38.894Z,92.91
2022-11-29T21:17:40.176Z,91.93
2022-11-29T21:23:00.698Z,92.47
2022-11-29T21:28:03.559Z,92.58
2022-11-29T21:33:01.313Z,92.33
2022-11-29T21:38:00.972Z,91.40
2022-11-29T21:42:58.324Z,92.11
2022-11-29T21:47:59.400Z,93.03
2022-11-29T21:52:56.484Z,92.57
2022-11-29T21:57:54.384Z,92.58
2022-11-29T22:02:51.681Z,92.38
2022-11-29T22:07:54.806Z,91.65
2022-11-29T22:12:52.848Z,91.91
2022-11-29T22:17:51.057Z,91.87
2022-11-29T22:22:50.091Z,92.23
2022-11-29T22:27:49.739Z,91.10
2022-11-29T22:32:46.802Z,91.60
2022-11-29T22:37:45.272Z,90.71
2022-11-29T22:42:42.669Z,90.54
2022-11-29T22:47:43.087Z,90.15
2022-11-29T22:52:44.499Z,90.55
2022-11-29T22:57:42.127Z,90.57
2022-11-29T23:02:42.213Z,90.53
2022-11-29T23:07:42.398Z,90.70
2022-11-29T23:12:39.365Z,90.49
2022-11-29T23:17:36.997Z,90.50
2022-11-29T23:22:38.141Z,90.14
2022-11-29T23:27:38.056Z,89.98
2022-11-29T23:32:34.878Z,89.44
2022-11-29T23:37:33.794Z,88.38
2022-11-29T23:42:30.701Z,88.88
2022-11-29T23:47:27.573Z,88.86
2022-11-29T23:52:24.825Z,89.21
2022-11-29T23:57:22.646Z,89.47
